Time;durP1;ratioP1;P1;durP2;ratioP2;P2;SDS_P1;SDS_P2;PMS_P1;PMS_P2;Temp;Humidity;BMP_temperature;BMP_pressure;BME280_temperature;BME280_humidity;BME280_pressure;Samples;Min_cycle;Max_cycle;Signal;HPM_P1;HPM_P2
2022/11/10 00:02:22;;;;;;;10.18;4.28;;;16.50;87.50;;;;;;5055544;28;20029;-73
2022/11/10 00:04:47;;;;;;;9.52;4.72;;;16.50;87.50;;;;;;5046551;28;20511;-73
2022/11/10 00:07:13;;;;;;;8.77;4.45;;;16.50;87.50;;;;;;5034600;28;20074;-73
2022/11/10 00:09:39;;;;;;;11.27;4.88;;;16.50;87.40;;;;;;5034428;28;20029;-73
2022/11/10 00:12:04;;;;;;;10.65;4.80;;;16.50;87.50;;;;;;5035809;28;20028;-73
2022/11/10 00:17:14;;;;;;;10.65;4.80;;;16.50;87.50;;;;;;5055184;28;20032;-73
2022/11/10 00:19:40;;;;;;;10.98;4.50;;;16.50;87.50;;;;;;5054155;28;20033;-73
2022/11/10 00:22:06;;;;;;;18.50;5.20;;;16.50;87.70;;;;;;5054277;28;20107;-73
2022/11/10 00:24:31;;;;;;;8.18;4.00;;;16.40;87.50;;;;;;5054128;28;20065;-73
2022/11/10 00:26:57;;;;;;;13.68;4.53;;;16.40;87.50;;;;;;5037478;28;20021;-73
2022/11/10 00:29:22;;;;;;;8.82;4.18;;;16.40;87.50;;;;;;5053694;28;20051;-73
2022/11/10 00:31:48;;;;;;;12.18;4.05;;;16.50;87.50;;;;;;5053876;28;20021;-73
2022/11/10 00:34:15;;;;;;;12.68;4.30;;;16.50;87.50;;;;;;5055101;28;20058;-73
2022/11/10 00:36:41;;;;;;;11.88;4.00;;;16.40;87.50;;;;;;5053814;28;20021;-73
2022/11/10 00:39:07;;;;;;;13.20;4.53;;;16.40;87.60;;;;;;5037011;28;20033;-73
2022/11/10 00:41:33;;;;;;;10.35;4.07;;;16.40;87.60;;;;;;5052926;28;20029;-73
2022/11/10 00:43:58;;;;;;;9.82;4.22;;;16.40;87.60;;;;;;5054953;28;20108;-73
2022/11/10 00:46:24;;;;;;;9.25;4.47;;;16.40;87.60;;;;;;5054765;28;20108;-73
2022/11/10 00:48:49;;;;;;;9.73;3.92;;;16.40;87.60;;;;;;5053566;28;20538;-73
2022/11/10 00:51:35;;;;;;;9.70;3.92;;;16.40;87.50;;;;;;5054728;28;20021;-73
2022/11/10 00:54:01;;;;;;;7.22;3.90;;;16.40;87.50;;;;;;5053336;28;20241;-73
2022/11/10 00:56:27;;;;;;;11.60;3.88;;;16.40;87.50;;;;;;5053234;28;20045;-73
2022/11/10 00:58:52;;;;;;;8.60;3.58;;;16.40;87.50;;;;;;5053159;28;20033;-73
2022/11/10 01:01:19;;;;;;;10.23;4.20;;;16.40;87.50;;;;;;5054704;28;20081;-73
2022/11/10 01:03:45;;;;;;;8.27;3.95;;;16.40;87.50;;;;;;5053367;28;20043;-73
2022/11/10 01:06:12;;;;;;;10.48;3.83;;;16.40;87.40;;;;;;5034184;28;20025;-73
2022/11/10 01:08:38;;;;;;;10.73;4.03;;;16.40;87.50;;;;;;5033458;28;20111;-73
2022/11/10 01:11:05;;;;;;;9.38;3.78;;;16.40;87.40;;;;;;5036612;28;20014;-73
2022/11/10 01:13:31;;;;;;;9.50;3.95;;;16.40;87.50;;;;;;5035291;28;20090;-73
2022/11/10 01:15:56;;;;;;;17.02;4.60;;;16.40;87.40;;;;;;5053215;28;20118;-73
2022/11/10 01:18:22;;;;;;;11.10;4.13;;;16.40;87.40;;;;;;5036356;28;20438;-73
2022/11/10 01:20:51;;;;;;;8.10;3.65;;;16.40;87.50;;;;;;5036508;28;20483;-73
2022/11/10 01:23:17;;;;;;;8.68;3.47;;;16.40;87.50;;;;;;5036717;28;20039;-73
2022/11/10 01:25:43;;;;;;;7.15;3.50;;;16.40;87.50;;;;;;5054117;28;20029;-73
2022/11/10 01:28:08;;;;;;;7.25;3.53;;;16.40;87.50;;;;;;5052751;28;20025;-73
2022/11/10 01:30:34;;;;;;;7.30;4.00;;;16.40;87.50;;;;;;5052729;28;20458;-73
2022/11/10 01:32:59;;;;;;;9.00;3.65;;;16.40;87.50;;;;;;5054079;28;20029;-73
2022/11/10 01:35:25;;;;;;;8.00;3.83;;;16.40;87.40;;;;;;5036189;28;20028;-73
2022/11/10 01:37:51;;;;;;;10.15;4.13;;;16.40;87.50;;;;;;5053855;28;20033;-73
2022/11/10 01:40:17;;;;;;;7.38;3.63;;;16.40;87.40;;;;;;5036333;28;20024;-74
2022/11/10 01:42:51;;;;;;;7.32;3.72;;;16.40;87.40;;;;;;5035909;28;20395;-74
2022/11/10 01:45:23;;;;;;;8.60;3.90;;;16.40;87.50;;;;;;5036206;28;20017;-74
2022/11/10 01:47:50;;;;;;;6.60;3.67;;;16.40;87.50;;;;;;5053762;28;20483;-74
2022/11/10 01:50:15;;;;;;;8.85;3.50;;;16.40;87.50;;;;;;5035992;28;20105;-74
2022/11/10 01:52:42;;;;;;;6.95;3.33;;;16.40;87.40;;;;;;5035675;28;20126;-73
2022/11/10 01:55:08;;;;;;;6.82;3.45;;;16.40;87.50;;;;;;5036003;28;20071;-73
2022/11/10 01:57:34;;;;;;;6.80;3.28;;;16.40;87.60;;;;;;5018824;28;20041;-73
2022/11/10 02:00:00;;;;;;;8.45;3.22;;;16.40;87.50;;;;;;5052291;28;20032;-73
2022/11/10 02:02:32;;;;;;;9.15;3.90;;;16.40;87.50;;;;;;5035698;28;20028;-73
2022/11/10 02:04:57;;;;;;;7.47;3.25;;;16.40;87.60;;;;;;5027075;28;20025;-73
2022/11/10 02:07:23;;;;;;;7.25;3.60;;;16.40;87.70;;;;;;5032070;28;20557;-73
2022/11/10 02:09:49;;;;;;;7.55;3.40;;;16.40;87.70;;;;;;5032191;28;20492;-73
2022/11/10 02:12:14;;;;;;;11.90;3.90;;;16.40;87.70;;;;;;5034133;28;20468;-73
2022/11/10 02:14:40;;;;;;;8.45;3.72;;;16.40;87.70;;;;;;5052004;28;20024;-73
2022/11/10 02:17:06;;;;;;;10.55;3.97;;;16.40;87.80;;;;;;5035688;28;20025;-73
2022/11/10 02:19:40;;;;;;;8.70;3.72;;;16.40;87.80;;;;;;5051816;28;20127;-73
2022/11/10 02:22:06;;;;;;;7.93;3.58;;;16.40;87.80;;;;;;5036487;28;20091;-73
2022/11/10 02:24:31;;;;;;;6.93;3.42;;;16.40;87.80;;;;;;5051882;28;20060;-73
2022/11/10 02:26:57;;;;;;;9.00;3.03;;;16.40;87.80;;;;;;5052690;28;20079;-73
2022/11/10 02:29:23;;;;;;;6.65;3.25;;;16.40;87.80;;;;;;5053022;28;20475;-73
2022/11/10 02:31:48;;;;;;;7.00;3.17;;;16.40;87.70;;;;;;5051716;28;20021;-73
2022/11/10 02:34:14;;;;;;;10.57;3.80;;;16.40;87.70;;;;;;5052942;28;20035;-73
2022/11/10 02:36:40;;;;;;;11.57;3.78;;;16.40;87.70;;;;;;5035090;28;20150;-73
2022/11/10 02:39:05;;;;;;;6.97;3.25;;;16.40;87.70;;;;;;5051774;28;20039;-73
2022/11/10 02:41:31;;;;;;;7.18;3.17;;;16.40;87.70;;;;;;5051407;28;20067;-73
2022/11/10 02:43:57;;;;;;;7.40;3.40;;;16.40;87.70;;;;;;5051810;28;20052;-73
2022/11/10 02:46:22;;;;;;;7.25;3.22;;;16.40;87.70;;;;;;5051457;28;20036;-73
2022/11/10 02:48:48;;;;;;;6.10;3.20;;;16.40;87.70;;;;;;5051523;28;20110;-73
2022/11/10 02:51:14;;;;;;;6.03;3.30;;;16.40;87.80;;;;;;5052723;28;20059;-73
2022/11/10 02:53:39;;;;;;;8.43;3.15;;;16.40;87.80;;;;;;5051268;28;20024;-73
2022/11/10 02:56:05;;;;;;;11.20;3.30;;;16.40;87.90;;;;;;5052125;28;20072;-73
2022/11/10 02:58:31;;;;;;;6.32;3.08;;;16.30;87.80;;;;;;5051376;28;20100;-74
2022/11/10 03:00:56;;;;;;;6.75;3.30;;;16.40;88.00;;;;;;5051322;28;20437;-74
2022/11/10 03:03:22;;;;;;;9.07;3.58;;;16.40;87.90;;;;;;5050468;28;20029;-73
2022/11/10 03:05:48;;;;;;;11.18;3.85;;;16.40;87.90;;;;;;5018732;28;20064;-73
2022/11/10 03:08:14;;;;;;;9.65;3.20;;;16.40;87.90;;;;;;5031202;28;20512;-73
2022/11/10 03:10:39;;;;;;;7.18;2.85;;;16.40;87.90;;;;;;5030994;28;20496;-73
2022/11/10 03:13:05;;;;;;;7.43;2.65;;;16.40;87.90;;;;;;5039254;28;20021;-73
2022/11/10 03:15:31;;;;;;;7.60;3.03;;;16.30;87.80;;;;;;5051061;28;20032;-73
2022/11/10 03:18:00;;;;;;;11.65;3.42;;;16.40;87.90;;;;;;5051219;28;20021;-73
2022/11/10 03:20:26;;;;;;;7.43;3.00;;;16.30;87.90;;;;;;5034903;28;20128;-73
2022/11/10 03:22:51;;;;;;;8.55;3.17;;;16.40;87.90;;;;;;5034455;28;20526;-73
2022/11/10 03:25:17;;;;;;;6.97;2.95;;;16.30;87.80;;;;;;5052109;28;20029;-73
2022/11/10 03:27:42;;;;;;;5.30;2.97;;;16.30;87.80;;;;;;5050909;28;20442;-73
2022/11/10 03:30:09;;;;;;;5.00;2.75;;;16.40;87.90;;;;;;5017833;28;20032;-73
2022/11/10 03:32:34;;;;;;;5.38;2.75;;;16.30;87.90;;;;;;5052123;28;20387;-73
2022/11/10 03:35:00;;;;;;;6.53;2.95;;;16.30;87.90;;;;;;5051049;28;20029;-73
2022/11/10 03:37:26;;;;;;;7.03;2.90;;;16.40;88.00;;;;;;5052080;28;20017;-73
2022/11/10 03:39:51;;;;;;;7.43;3.53;;;16.40;88.00;;;;;;5033873;28;20037;-73
2022/11/10 03:42:17;;;;;;;7.03;3.22;;;16.40;88.00;;;;;;5052159;28;20035;-73
2022/11/10 03:44:43;;;;;;;10.27;3.08;;;16.40;88.00;;;;;;5051945;28;20082;-73
2022/11/10 03:47:08;;;;;;;6.75;2.90;;;16.30;88.00;;;;;;5052164;28;20452;-73
2022/11/10 03:49:34;;;;;;;6.40;2.60;;;16.30;88.00;;;;;;5051812;28;20493;-73
2022/11/10 03:51:59;;;;;;;6.10;2.97;;;16.40;88.10;;;;;;5052012;28;20609;-73
2022/11/10 03:54:25;;;;;;;6.28;2.58;;;16.40;88.10;;;;;;5050739;28;20025;-73
2022/11/10 03:56:51;;;;;;;5.80;2.72;;;16.30;88.10;;;;;;5051799;28;20079;-73
2022/11/10 03:59:16;;;;;;;7.70;3.08;;;16.30;88.10;;;;;;5050847;28;20108;-73
2022/11/10 04:01:42;;;;;;;8.27;2.80;;;16.30;88.10;;;;;;5051717;28;20032;-73
2022/11/10 04:08:57;;;;;;;5.07;2.50;;;16.30;88.10;;;;;;5049676;28;20029;-73
2022/11/10 04:09:39;;;;;;;7.22;2.95;;;16.30;88.10;;;;;;5030650;28;20196;-73
2022/11/10 04:17:33;;;;;;;7.95;3.00;;;16.30;88.10;;;;;;5035584;28;20060;-74
2022/11/10 04:19:59;;;;;;;5.18;2.97;;;16.30;88.10;;;;;;5035485;28;20049;-74
2022/11/10 04:25:08;;;;;;;5.75;2.60;;;16.30;88.20;;;;;;5035336;28;20064;-74
2022/11/10 04:27:34;;;;;;;5.15;2.92;;;16.30;88.20;;;;;;5034221;28;20034;-73
2022/11/10 04:30:00;;;;;;;6.22;2.40;;;16.30;88.10;;;;;;5034127;28;20104;-73
2022/11/10 04:32:25;;;;;;;4.85;2.78;;;16.30;88.10;;;;;;5035646;28;20472;-73
2022/11/10 04:34:51;;;;;;;6.63;2.92;;;16.30;88.10;;;;;;5035317;28;20419;-73
2022/11/10 04:37:16;;;;;;;4.32;2.35;;;16.30;88.10;;;;;;5035028;28;20025;-73
2022/11/10 04:39:42;;;;;;;6.43;2.53;;;16.30;88.10;;;;;;5033776;28;20453;-73
2022/11/10 04:42:08;;;;;;;6.82;2.53;;;16.30;88.10;;;;;;5033937;28;20026;-73
2022/11/10 04:44:33;;;;;;;3.85;2.50;;;16.30;88.10;;;;;;5035175;28;20029;-73
2022/11/10 04:46:59;;;;;;;7.35;3.08;;;16.30;88.10;;;;;;5034860;28;20034;-73
2022/11/10 04:49:25;;;;;;;5.03;2.40;;;16.30;88.10;;;;;;5034929;28;20035;-73
2022/11/10 04:51:50;;;;;;;8.23;3.30;;;16.30;88.10;;;;;;5033504;28;20052;-73
2022/11/10 04:54:16;;;;;;;4.32;2.90;;;16.30;88.10;;;;;;5034859;28;20159;-73
2022/11/10 04:56:42;;;;;;;4.50;2.33;;;16.30;88.00;;;;;;5034417;28;20458;-73
2022/11/10 04:59:07;;;;;;;7.32;2.40;;;16.30;88.10;;;;;;5034788;28;20040;-73
2022/11/10 05:01:33;;;;;;;5.78;2.70;;;16.30;88.10;;;;;;5033570;28;20029;-73
2022/11/10 05:03:58;;;;;;;5.82;2.63;;;16.30;88.00;;;;;;5049810;28;20064;-73
2022/11/10 05:06:24;;;;;;;6.43;2.92;;;16.30;88.10;;;;;;5034361;28;20026;-73
2022/11/10 05:08:50;;;;;;;5.00;2.40;;;16.30;88.10;;;;;;5033214;28;20068;-73
2022/11/10 05:11:16;;;;;;;5.40;2.60;;;16.30;88.10;;;;;;5033592;28;20076;-73
2022/11/10 05:13:41;;;;;;;3.78;2.13;;;16.30;88.00;;;;;;5045785;28;20059;-73
2022/11/10 05:16:07;;;;;;;4.90;2.50;;;16.30;88.10;;;;;;5053294;28;20020;-73
2022/11/10 05:18:33;;;;;;;5.07;2.35;;;16.30;88.10;;;;;;5053309;28;20086;-73
2022/11/10 05:20:59;;;;;;;4.75;2.35;;;16.30;88.10;;;;;;5036275;28;20053;-73
2022/11/10 05:23:40;;;;;;;5.22;2.70;;;16.30;88.10;;;;;;5054356;28;20025;-73
2022/11/10 05:26:08;;;;;;;3.78;2.25;;;16.30;88.10;;;;;;5053698;28;20021;-73
2022/11/10 05:28:34;;;;;;;4.95;2.50;;;16.30;88.10;;;;;;5036551;28;20032;-73
2022/11/10 05:30:59;;;;;;;3.97;2.03;;;16.30;88.10;;;;;;5054121;28;20025;-73
2022/11/10 05:33:25;;;;;;;4.65;2.20;;;16.30;88.10;;;;;;5036260;28;20025;-73
2022/11/10 05:35:51;;;;;;;4.25;2.20;;;16.30;88.10;;;;;;5052837;28;20025;-73
2022/11/10 05:38:16;;;;;;;5.07;2.38;;;16.30;89.10;;;;;;5052907;28;20036;-73
2022/11/10 05:40:42;;;;;;;3.97;2.05;;;16.30;88.10;;;;;;5052791;28;20029;-73
2022/11/10 05:43:08;;;;;;;4.30;2.25;;;16.30;88.10;;;;;;5036157;28;20037;-73
2022/11/10 05:45:34;;;;;;;6.70;2.53;;;16.30;88.10;;;;;;5019533;28;20489;-73
2022/11/10 05:47:59;;;;;;;5.03;2.40;;;16.30;88.20;;;;;;5052359;28;20115;-73
2022/11/10 05:50:25;;;;;;;6.60;2.60;;;16.30;88.20;;;;;;5053514;28;20021;-73
2022/11/10 05:52:52;;;;;;;4.78;2.13;;;16.30;88.20;;;;;;5035965;28;20391;-73
2022/11/10 05:55:19;;;;;;;7.13;2.50;;;16.30;88.20;;;;;;5052444;28;20025;-73
2022/11/10 05:57:46;;;;;;;6.35;2.25;;;16.30;88.40;;;;;;5052213;28;20047;-73
2022/11/10 06:00:13;;;;;;;6.32;2.17;;;16.30;88.40;;;;;;5036015;28;20036;-73
2022/11/10 06:02:38;;;;;;;4.97;2.35;;;16.30;88.40;;;;;;5052233;28;20036;-73
2022/11/10 06:05:04;;;;;;;8.35;2.40;;;16.30;88.40;;;;;;5042134;28;20396;-74
2022/11/10 06:07:30;;;;;;;3.45;2.28;;;16.30;88.40;;;;;;5033688;28;20065;-74
2022/11/10 06:09:56;;;;;;;5.63;2.00;;;16.30;88.40;;;;;;5031735;28;20057;-73
2022/11/10 06:12:23;;;;;;;5.72;2.30;;;16.30;88.50;;;;;;5038270;28;20026;-73
2022/11/10 06:14:50;;;;;;;3.10;1.80;;;16.30;88.50;;;;;;5033212;28;20496;-73
2022/11/10 06:17:15;;;;;;;5.03;2.53;;;16.30;88.60;;;;;;5033481;28;20032;-73
2022/11/10 06:19:41;;;;;;;6.78;2.20;;;16.30;88.60;;;;;;5033019;28;20100;-73
2022/11/10 06:22:07;;;;;;;4.35;2.20;;;16.30;88.60;;;;;;5015422;28;20036;-73
2022/11/10 06:24:32;;;;;;;6.32;1.98;;;16.30;88.60;;;;;;5033358;28;20045;-73
2022/11/10 06:26:58;;;;;;;4.65;2.35;;;16.30;88.60;;;;;;5033098;28;20079;-74
2022/11/10 06:29:23;;;;;;;6.13;2.10;;;16.30;88.70;;;;;;5032976;28;20021;-73
2022/11/10 06:31:49;;;;;;;7.47;2.38;;;16.30;88.60;;;;;;5032808;28;20443;-73
2022/11/10 06:34:15;;;;;;;5.57;2.38;;;16.30;88.50;;;;;;5032850;28;20487;-74
2022/11/10 06:36:40;;;;;;;6.13;2.47;;;16.30;88.70;;;;;;5032939;28;20037;-73
2022/11/10 06:39:06;;;;;;;5.43;2.33;;;16.30;88.50;;;;;;5032047;28;20025;-73
2022/11/10 06:41:32;;;;;;;6.18;2.63;;;16.30;88.60;;;;;;5015314;28;20053;-73
2022/11/10 06:43:58;;;;;;;4.82;2.15;;;16.30;88.60;;;;;;5032770;28;20021;-73
2022/11/10 06:46:24;;;;;;;5.82;2.33;;;16.30;88.60;;;;;;5015091;28;20083;-73
2022/11/10 06:48:49;;;;;;;3.30;1.95;;;16.30;88.60;;;;;;5032465;28;20033;-73
2022/11/10 06:51:15;;;;;;;5.35;2.35;;;16.30;88.60;;;;;;5031690;28;20032;-73
2022/11/10 06:53:41;;;;;;;3.63;2.13;;;16.30;88.60;;;;;;5032701;28;20029;-73
2022/11/10 06:56:07;;;;;;;4.05;1.92;;;16.30;88.60;;;;;;5014797;28;20521;-73
2022/11/10 06:58:33;;;;;;;6.20;2.10;;;16.30;88.70;;;;;;5015016;28;20034;-73
2022/11/10 07:00:59;;;;;;;4.22;1.92;;;16.30;88.70;;;;;;5039661;28;20040;-73
2022/11/10 07:03:25;;;;;;;6.30;2.30;;;16.30;88.60;;;;;;5018992;28;20026;-73
2022/11/10 07:05:51;;;;;;;6.22;2.50;;;16.30;88.60;;;;;;5031902;28;20037;-73
2022/11/10 07:08:16;;;;;;;4.40;1.65;;;16.30;88.60;;;;;;5032921;28;20029;-73
2022/11/10 07:10:43;;;;;;;6.10;2.10;;;16.30;88.70;;;;;;5031388;28;20048;-74
2022/11/10 07:13:09;;;;;;;4.88;1.60;;;16.30;88.40;;;;;;5045154;28;20009;-71
2022/11/10 07:15:35;;;;;;;4.97;2.25;;;16.30;88.10;;;;;;5051139;28;20415;-73
2022/11/10 07:18:01;;;;;;;3.22;1.40;;;16.30;87.70;;;;;;5052271;28;20277;-73
2022/11/10 07:20:28;;;;;;;2.58;1.58;;;16.30;87.50;;;;;;5051023;28;20498;-74
2022/11/10 07:22:58;;;;;;;3.38;1.55;;;16.30;87.30;;;;;;5050991;28;20483;-74
2022/11/10 07:25:24;;;;;;;3.78;1.58;;;16.30;87.20;;;;;;5051098;28;20020;-74
2022/11/10 07:27:55;;;;;;;1.90;1.17;;;16.30;87.10;;;;;;5051035;28;20401;-74
2022/11/10 07:30:21;;;;;;;3.25;1.45;;;16.30;87.00;;;;;;5034349;28;20025;-74
2022/11/10 07:32:46;;;;;;;4.45;1.30;;;16.20;86.90;;;;;;5050984;28;20021;-74
2022/11/10 07:35:12;;;;;;;3.22;1.30;;;16.20;86.90;;;;;;5051024;28;20021;-74
2022/11/10 07:37:38;;;;;;;4.15;1.20;;;16.20;86.70;;;;;;5032630;28;20063;-74
2022/11/10 07:40:04;;;;;;;3.65;1.20;;;16.20;86.70;;;;;;5050389;28;20053;-74
2022/11/10 07:42:29;;;;;;;4.68;1.45;;;16.20;86.70;;;;;;5050716;28;20029;-74
2022/11/10 07:44:55;;;;;;;6.63;1.30;;;16.20;86.60;;;;;;5050029;28;20070;-74
2022/11/10 07:47:21;;;;;;;2.95;1.13;;;16.20;86.60;;;;;;5032726;28;20025;-74
2022/11/10 07:49:47;;;;;;;4.60;1.60;;;16.20;86.70;;;;;;5050830;28;20029;-74
2022/11/10 07:52:12;;;;;;;11.93;1.92;;;16.20;86.70;;;;;;5054229;28;20214;-74
2022/11/10 07:54:38;;;;;;;26.75;4.60;;;16.20;86.60;;;;;;5054754;28;20552;-74
2022/11/10 07:57:03;;;;;;;28.65;5.50;;;16.20;86.70;;;;;;5054258;28;20049;-74
2022/11/10 07:59:29;;;;;;;23.70;3.85;;;16.20;87.00;;;;;;5053881;28;20013;-74
2022/11/10 08:01:55;;;;;;;29.30;5.47;;;16.30;87.20;;;;;;5054501;28;20025;-74
2022/11/10 08:04:20;;;;;;;41.70;5.47;;;16.20;87.30;;;;;;5051081;28;20029;-74
2022/11/10 08:06:46;;;;;;;37.03;6.30;;;16.30;87.50;;;;;;5035632;28;20025;-74
2022/11/10 08:09:11;;;;;;;37.72;5.65;;;16.30;87.70;;;;;;5035596;28;20435;-74
2022/11/10 08:11:37;;;;;;;26.95;5.47;;;16.30;87.80;;;;;;5035552;28;20025;-74
2022/11/10 08:14:03;;;;;;;28.00;4.78;;;16.30;87.80;;;;;;5049964;28;20025;-74
2022/11/10 08:16:28;;;;;;;23.83;5.15;;;16.20;87.90;;;;;;5055655;28;20061;-74
2022/11/10 08:18:54;;;;;;;31.20;5.32;;;16.30;88.00;;;;;;5054190;28;20116;-74
2022/11/10 08:21:19;;;;;;;29.60;4.93;;;16.20;87.90;;;;;;5052687;28;20033;-74
2022/11/10 08:23:45;;;;;;;27.10;4.55;;;16.30;88.10;;;;;;5054374;28;20109;-74
2022/11/10 08:26:11;;;;;;;23.00;3.83;;;16.30;88.10;;;;;;5054054;28;20437;-74
2022/11/10 08:28:36;;;;;;;23.33;4.05;;;16.20;88.00;;;;;;5055079;28;20029;-74
2022/11/10 08:31:02;;;;;;;22.45;4.25;;;16.30;88.00;;;;;;5055144;28;20025;-74
2022/11/10 08:33:28;;;;;;;20.77;3.65;;;16.30;88.00;;;;;;5053893;28;20119;-74
2022/11/10 08:35:53;;;;;;;21.13;3.80;;;16.20;88.00;;;;;;5055277;28;20048;-74
2022/11/10 08:38:20;;;;;;;25.05;4.22;;;16.20;88.00;;;;;;5054867;28;20036;-74
2022/11/10 08:40:46;;;;;;;19.02;3.65;;;16.30;88.10;;;;;;5053871;28;20032;-74
2022/11/10 08:43:12;;;;;;;15.15;4.15;;;16.20;88.00;;;;;;5036967;28;20029;-74
2022/11/10 08:45:40;;;;;;;20.42;4.10;;;16.20;87.90;;;;;;5053751;28;20075;-74
2022/11/10 08:48:26;;;;;;;24.40;4.40;;;16.20;87.90;;;;;;5053569;28;20025;-74
2022/11/10 08:50:51;;;;;;;14.60;3.72;;;16.20;87.90;;;;;;5054682;28;20037;-74
2022/11/10 08:53:22;;;;;;;20.77;4.45;;;16.20;87.80;;;;;;5037165;28;20017;-74
2022/11/10 08:55:48;;;;;;;18.13;4.03;;;16.30;87.90;;;;;;5053454;28;20023;-74
2022/11/10 08:58:18;;;;;;;16.40;3.30;;;16.20;87.70;;;;;;5036629;28;20556;-74
2022/11/10 09:00:45;;;;;;;20.23;3.92;;;16.30;87.80;;;;;;5053705;28;20056;-74
2022/11/10 09:03:16;;;;;;;14.50;3.97;;;16.20;87.70;;;;;;5036924;28;20017;-74
2022/11/10 09:05:42;;;;;;;18.98;3.83;;;16.20;87.70;;;;;;5039468;28;20033;-74
2022/11/10 09:08:08;;;;;;;20.85;4.35;;;16.20;87.70;;;;;;5033215;28;20101;-74
2022/11/10 09:10:35;;;;;;;14.30;4.25;;;16.20;87.60;;;;;;5033484;28;20049;-74
2022/11/10 09:13:01;;;;;;;17.55;3.33;;;16.20;87.60;;;;;;5040131;28;20028;-74
2022/11/10 09:15:27;;;;;;;17.67;3.58;;;16.20;87.50;;;;;;5036619;28;20031;-74
2022/11/10 09:17:53;;;;;;;18.50;4.10;;;16.20;87.50;;;;;;5036808;28;20029;-74
2022/11/10 09:20:18;;;;;;;19.60;3.60;;;16.20;87.50;;;;;;5054160;28;20086;-74
2022/11/10 09:22:44;;;;;;;16.17;3.30;;;16.20;87.50;;;;;;5036531;28;20025;-74
2022/11/10 09:25:09;;;;;;;17.48;4.38;;;16.20;87.50;;;;;;5052937;28;20029;-74
2022/11/10 09:27:38;;;;;;;21.00;4.70;;;16.20;87.50;;;;;;5052683;28;20029;-74
2022/11/10 09:30:05;;;;;;;19.38;3.90;;;16.20;87.40;;;;;;5054123;28;20036;-74
2022/11/10 09:32:31;;;;;;;19.70;2.97;;;16.20;87.50;;;;;;5052945;28;20021;-74
2022/11/10 09:34:57;;;;;;;11.68;3.17;;;16.20;87.40;;;;;;5053078;28;20025;-74
2022/11/10 09:37:23;;;;;;;15.93;3.95;;;16.20;87.40;;;;;;5052639;28;20019;-74
2022/11/10 09:39:48;;;;;;;10.45;3.03;;;16.20;87.30;;;;;;5036315;28;20029;-74
2022/11/10 09:42:36;;;;;;;15.48;3.53;;;16.20;87.30;;;;;;5035952;28;20487;-74
2022/11/10 09:45:12;;;;;;;16.58;4.25;;;16.20;87.30;;;;;;5052568;28;20499;-74
2022/11/10 09:47:46;;;;;;;14.82;2.90;;;16.20;87.20;;;;;;5053879;28;20025;-74
2022/11/10 09:50:20;;;;;;;10.65;2.70;;;16.10;87.20;;;;;;5036554;28;20116;-74
2022/11/10 09:52:46;;;;;;;12.82;2.90;;;16.20;87.20;;;;;;5036399;28;20025;-74
2022/11/10 09:55:27;;;;;;;12.60;3.10;;;16.20;87.20;;;;;;5052280;28;20472;-74
2022/11/10 09:57:53;;;;;;;7.65;2.90;;;16.20;87.20;;;;;;5037019;28;20495;-74
2022/11/10 10:00:19;;;;;;;9.18;3.13;;;16.10;87.10;;;;;;5035540;28;20174;-74
2022/11/10 10:02:47;;;;;;;10.10;3.10;;;16.10;87.10;;;;;;5052225;28;20061;-74
2022/11/10 10:05:28;;;;;;;14.80;3.05;;;16.10;87.10;;;;;;5041220;28;20030;-74
2022/11/10 10:07:54;;;;;;;7.15;2.80;;;16.10;87.10;;;;;;5033596;28;20037;-74
2022/11/10 10:10:39;;;;;;;13.23;3.15;;;16.10;87.10;;;;;;5032965;28;20029;-74
2022/11/10 10:13:27;;;;;;;7.72;2.45;;;16.10;87.10;;;;;;5043574;28;20036;-74
2022/11/10 10:16:14;;;;;;;11.65;2.47;;;16.10;87.00;;;;;;5053374;28;20021;-74
2022/11/10 10:18:45;;;;;;;9.70;2.70;;;16.10;87.10;;;;;;5053330;28;20028;-74
2022/11/10 10:21:27;;;;;;;10.52;2.75;;;16.10;87.00;;;;;;5052929;28;20025;-74
2022/11/10 10:23:54;;;;;;;12.70;2.77;;;16.10;86.90;;;;;;5052019;28;20070;-74
2022/11/10 10:26:25;;;;;;;10.48;2.63;;;16.10;87.00;;;;;;5035098;28;20040;-74
2022/11/10 10:28:51;;;;;;;10.32;2.55;;;16.10;86.90;;;;;;5051784;28;20021;-74
2022/11/10 10:31:20;;;;;;;10.50;2.88;;;16.10;86.90;;;;;;5051783;28;20021;-74
2022/11/10 10:33:46;;;;;;;11.15;2.90;;;16.10;86.90;;;;;;5052814;28;20028;-74
2022/11/10 10:36:22;;;;;;;11.90;3.22;;;16.10;86.90;;;;;;5051743;28;20021;-74
2022/11/10 10:38:50;;;;;;;10.52;2.80;;;16.10;86.90;;;;;;5035949;28;20021;-74
2022/11/10 10:41:24;;;;;;;10.23;2.40;;;16.10;86.80;;;;;;5035315;28;20020;-74
2022/11/10 10:43:52;;;;;;;9.52;2.53;;;16.10;86.80;;;;;;5035251;28;20024;-74
2022/11/10 10:46:19;;;;;;;11.02;3.08;;;16.10;86.80;;;;;;5034956;28;20144;-74
2022/11/10 10:48:44;;;;;;;9.65;3.22;;;16.10;86.80;;;;;;5051561;28;20021;-74
2022/11/10 10:51:11;;;;;;;11.32;2.75;;;16.10;86.80;;;;;;5034841;28;20074;-74
2022/11/10 10:53:46;;;;;;;9.73;2.38;;;16.10;87.80;;;;;;5051328;28;20010;-74
2022/11/10 10:56:38;;;;;;;13.20;2.42;;;16.00;86.70;;;;;;5051272;28;20045;-74
2022/11/10 10:59:04;;;;;;;9.45;2.40;;;16.10;86.70;;;;;;5033608;28;20049;-74
2022/11/10 11:01:36;;;;;;;12.35;3.30;;;16.10;86.80;;;;;;5034696;28;20486;-74
2022/11/10 11:04:05;;;;;;;9.20;2.40;;;16.10;86.70;;;;;;5033827;28;20025;-74
2022/11/10 11:06:31;;;;;;;9.15;2.40;;;16.10;86.80;;;;;;5031404;28;20048;-74
2022/11/10 11:08:58;;;;;;;11.63;3.92;;;16.00;86.70;;;;;;5031073;28;20033;-74
2022/11/10 11:11:32;;;;;;;14.82;3.22;;;16.10;86.70;;;;;;5032258;28;20072;-74
2022/11/10 11:14:19;;;;;;;10.52;3.55;;;16.00;86.60;;;;;;5046264;28;20107;-74
2022/11/10 11:16:46;;;;;;;8.40;2.58;;;16.00;86.60;;;;;;5051164;28;20010;-74
2022/11/10 11:19:12;;;;;;;11.77;2.90;;;16.00;86.60;;;;;;5051053;28;20056;-74
2022/11/10 11:21:54;;;;;;;5.45;2.33;;;16.00;86.60;;;;;;5051064;28;20057;-74
2022/11/10 11:24:32;;;;;;;8.20;2.17;;;16.00;86.60;;;;;;5035464;28;20028;-74
2022/11/10 11:27:10;;;;;;;8.45;2.90;;;16.00;86.60;;;;;;5018843;28;20036;-74
2022/11/10 11:29:51;;;;;;;9.25;2.30;;;16.00;86.60;;;;;;5050840;28;20028;-74
2022/11/10 11:32:30;;;;;;;7.60;2.40;;;16.00;86.60;;;;;;5050968;28;20049;-74
2022/11/10 11:35:21;;;;;;;7.88;2.30;;;16.00;86.60;;;;;;5051029;28;20079;-74
2022/11/10 11:38:08;;;;;;;9.10;2.30;;;16.00;86.50;;;;;;5050800;28;20021;-74
2022/11/10 11:40:49;;;;;;;10.85;2.35;;;16.00;86.60;;;;;;5051169;28;20061;-74
2022/11/10 11:43:36;;;;;;;5.28;2.33;;;16.00;86.60;;;;;;5018119;28;20017;-74
2022/11/10 11:46:24;;;;;;;8.48;2.70;;;16.00;86.60;;;;;;5051865;28;20025;-74
2022/11/10 11:49:01;;;;;;;6.25;1.80;;;16.00;86.50;;;;;;5051995;28;20369;-74
2022/11/10 11:51:51;;;;;;;8.07;2.30;;;16.00;86.60;;;;;;5051568;28;20467;-74
2022/11/10 11:54:35;;;;;;;7.30;1.98;;;16.00;86.60;;;;;;5050920;28;20048;-74
2022/11/10 11:57:15;;;;;;;9.20;2.88;;;16.00;86.60;;;;;;5051599;28;20076;-74
2022/11/10 12:00:04;;;;;;;5.85;1.55;;;16.00;86.60;;;;;;5018409;28;20411;-74
2022/11/10 12:02:36;;;;;;;8.80;1.90;;;16.00;86.60;;;;;;5051536;28;20045;-74
2022/11/10 12:05:19;;;;;;;8.38;2.30;;;16.00;86.50;;;;;;5042242;28;20057;-74
2022/11/10 12:07:49;;;;;;;8.23;2.58;;;16.00;86.60;;;;;;5031809;28;20121;-74
2022/11/10 12:10:33;;;;;;;11.73;2.20;;;16.00;86.50;;;;;;5031794;28;20026;-74
2022/11/10 12:13:03;;;;;;;8.73;2.25;;;16.00;86.50;;;;;;5037510;28;20021;-74
2022/11/10 12:15:36;;;;;;;9.75;2.45;;;16.00;86.50;;;;;;5050372;28;20017;-74
2022/11/10 12:18:07;;;;;;;;;;;16.00;86.50;;;;;;5051005;28;20251;-74
2022/11/10 12:20:50;;;;;;;7.18;2.05;;;16.00;86.50;;;;;;5051416;28;19905;-74
2022/11/10 12:23:33;;;;;;;7.22;1.98;;;16.00;86.60;;;;;;5033938;28;20028;-74
2022/11/10 12:26:15;;;;;;;7.57;1.95;;;16.00;86.50;;;;;;5034567;28;20029;-74
2022/11/10 12:28:48;;;;;;;10.75;2.40;;;16.00;86.60;;;;;;5050545;28;20025;-74
2022/11/10 12:31:19;;;;;;;9.38;2.05;;;16.00;86.50;;;;;;5017933;28;20035;-74
2022/11/10 12:33:48;;;;;;;7.85;2.00;;;16.00;86.50;;;;;;5017617;28;20025;-74
2022/11/10 12:36:15;;;;;;;5.90;1.92;;;16.00;86.60;;;;;;5034531;28;20541;-74
2022/11/10 12:39:22;;;;;;;5.05;1.60;;;16.00;86.50;;;;;;5037508;28;20032;-74
2022/11/10 12:41:51;;;;;;;8.70;2.35;;;16.00;86.50;;;;;;5052956;28;20041;-74
2022/11/10 12:44:27;;;;;;;7.15;1.98;;;16.00;86.50;;;;;;5036407;28;20033;-74
2022/11/10 12:46:56;;;;;;;4.55;1.83;;;16.00;86.60;;;;;;5036171;28;20403;-74
2022/11/10 12:49:34;;;;;;;7.78;1.67;;;16.00;86.60;;;;;;5035976;28;20112;-74
2022/11/10 12:52:21;;;;;;;6.95;1.80;;;16.00;86.50;;;;;;5036273;28;20043;-74
2022/11/10 12:54:46;;;;;;;4.80;1.90;;;16.00;86.50;;;;;;5035920;28;20025;-74
2022/11/10 12:57:20;;;;;;;6.88;1.83;;;16.00;86.50;;;;;;5036075;28;20045;-74
2022/11/10 12:59:55;;;;;;;7.97;1.70;;;16.00;86.60;;;;;;5035793;28;20116;-74
2022/11/10 13:02:54;;;;;;;4.68;2.05;;;16.00;86.50;;;;;;5052615;28;20036;-74
2022/11/10 13:05:37;;;;;;;4.82;1.70;;;16.00;86.50;;;;;;5023910;28;20464;-74